Time;durP1;ratioP1;P1;durP2;ratioP2;P2;SDS_P1;SDS_P2;PMS_P1;PMS_P2;Temp;Humidity;BMP_temperature;BMP_pressure;BME280_temperature;BME280_humidity;BME280_pressure;Samples;Min_cycle;Max_cycle;Signal;HPM_P1;HPM_P2
2024/03/31 00:02:04;;;;;;;33.30;7.10;;;11.70;52.60;;;;;;5072977;28;20277;-75
2024/03/31 00:04:30;;;;;;;30.67;7.57;;;11.70;52.50;;;;;;5070762;28;20493;-75
2024/03/31 00:06:57;;;;;;;30.10;10.13;;;11.80;52.80;;;;;;5072656;28;20194;-75
2024/03/31 00:09:23;;;;;;;26.40;8.50;;;11.80;52.70;;;;;;5072856;28;20495;-75
2024/03/31 00:11:54;;;;;;;23.77;7.30;;;11.90;52.60;;;;;;5072449;28;20193;-75
2024/03/31 00:14:20;;;;;;;22.85;7.60;;;11.90;52.70;;;;;;5072755;28;20428;-75
2024/03/31 00:16:47;;;;;;;35.63;8.40;;;12.00;52.50;;;;;;5072743;28;20690;-75
2024/03/31 00:19:13;;;;;;;27.55;8.25;;;11.90;52.50;;;;;;5072798;28;20558;-74
2024/03/31 00:21:40;;;;;;;34.17;7.43;;;11.90;52.80;;;;;;5072965;28;20285;-73
2024/03/31 00:24:06;;;;;;;26.58;8.20;;;11.90;52.80;;;;;;5072917;28;20895;-73
2024/03/31 00:26:32;;;;;;;18.20;7.73;;;12.00;52.60;;;;;;5072694;28;20236;-72
2024/03/31 00:29:00;;;;;;;30.40;8.23;;;12.10;52.40;;;;;;5072831;28;20440;-72
2024/03/31 00:31:27;;;;;;;28.93;6.70;;;12.10;52.40;;;;;;5072524;28;20786;-73
2024/03/31 00:33:53;;;;;;;28.10;8.38;;;12.10;52.30;;;;;;5073132;28;20463;-72
2024/03/31 00:36:20;;;;;;;35.03;9.37;;;12.10;52.30;;;;;;5072819;28;20621;-73
2024/03/31 00:38:45;;;;;;;22.55;6.65;;;12.10;52.30;;;;;;5073093;28;20529;-73
2024/03/31 00:41:12;;;;;;;24.87;7.93;;;12.20;52.30;;;;;;5072809;28;20522;-74
2024/03/31 00:43:38;;;;;;;27.63;8.02;;;12.10;52.50;;;;;;5073228;28;20440;-75
2024/03/31 00:46:07;;;;;;;29.00;7.13;;;12.20;52.80;;;;;;5072156;28;20769;-75
2024/03/31 00:48:34;;;;;;;31.08;7.40;;;12.20;52.90;;;;;;5073003;28;20467;-75
2024/03/31 00:51:00;;;;;;;22.77;5.90;;;12.20;52.80;;;;;;5072673;28;20200;-74
2024/03/31 00:53:27;;;;;;;21.20;6.27;;;12.20;53.00;;;;;;5073100;28;20193;-75
2024/03/31 00:55:54;;;;;;;32.80;6.18;;;12.20;53.00;;;;;;5072915;28;20518;-73
2024/03/31 00:58:20;;;;;;;26.23;7.68;;;12.30;52.90;;;;;;5072503;28;20671;-76
2024/03/31 01:00:47;;;;;;;18.53;4.97;;;12.30;53.00;;;;;;5072875;28;20232;-75
2024/03/31 01:03:24;;;;;;;30.83;6.95;;;12.30;53.00;;;;;;5072543;28;20470;-74
2024/03/31 01:05:51;;;;;;;19.07;5.53;;;12.40;52.80;;;;;;5075894;28;20268;-73
2024/03/31 01:08:17;;;;;;;20.38;5.18;;;12.30;52.80;;;;;;5076695;28;20716;-73
2024/03/31 01:10:44;;;;;;;17.10;5.03;;;12.30;52.80;;;;;;5076434;28;20219;-73
2024/03/31 01:13:10;;;;;;;19.00;5.40;;;12.30;52.70;;;;;;5076674;28;20570;-73
2024/03/31 01:15:37;;;;;;;18.73;5.38;;;12.30;52.80;;;;;;5075495;28;20187;-73
2024/03/31 01:18:04;;;;;;;14.60;4.83;;;12.20;53.10;;;;;;5075966;28;20225;-73
2024/03/31 01:20:32;;;;;;;29.35;5.65;;;12.20;53.30;;;;;;5076737;28;20810;-73
2024/03/31 01:23:00;;;;;;;31.40;7.47;;;12.30;53.90;;;;;;5076454;28;20221;-74
2024/03/31 01:25:28;;;;;;;28.50;7.18;;;12.30;52.90;;;;;;5075781;28;20194;-74
2024/03/31 01:27:54;;;;;;;15.60;4.47;;;12.30;53.10;;;;;;5076144;28;20225;-74
2024/03/31 01:30:21;;;;;;;25.33;5.80;;;12.30;53.00;;;;;;5076035;28;20748;-74
2024/03/31 01:32:47;;;;;;;19.00;4.73;;;12.30;52.90;;;;;;5076314;28;20468;-75
2024/03/31 01:35:14;;;;;;;37.50;6.20;;;12.30;53.00;;;;;;5076195;28;20505;-74
2024/03/31 01:37:40;;;;;;;13.02;4.47;;;12.30;53.20;;;;;;5076262;28;20513;-74
2024/03/31 01:40:08;;;;;;;25.40;6.70;;;12.30;53.30;;;;;;5075839;28;20214;-74
2024/03/31 01:42:35;;;;;;;30.17;6.05;;;12.30;53.20;;;;;;5075752;28;20440;-74
2024/03/31 01:45:02;;;;;;;28.23;5.97;;;12.20;53.50;;;;;;5076144;28;20526;-74
2024/03/31 01:47:28;;;;;;;13.55;4.55;;;12.10;53.50;;;;;;5075961;28;20478;-74
2024/03/31 01:49:55;;;;;;;25.13;5.93;;;12.00;53.70;;;;;;5076025;28;20194;-75
2024/03/31 01:52:22;;;;;;;14.70;5.10;;;12.00;53.90;;;;;;5076031;28;20476;-74
2024/03/31 01:54:48;;;;;;;27.85;5.03;;;12.00;54.00;;;;;;5075631;28;20599;-74
2024/03/31 01:57:15;;;;;;;22.67;5.00;;;11.90;54.00;;;;;;5075636;28;20225;-74
2024/03/31 01:59:42;;;;;;;17.90;4.75;;;11.90;54.10;;;;;;5075774;28;20580;-74
2024/03/31 02:02:09;;;;;;;23.05;4.90;;;12.00;54.10;;;;;;5075843;28;20293;-74
2024/03/31 02:04:35;;;;;;;19.30;5.10;;;11.90;53.90;;;;;;5075616;28;20228;-74
2024/03/31 02:07:01;;;;;;;20.57;5.30;;;12.00;54.00;;;;;;5075903;28;20540;-74
2024/03/31 02:09:27;;;;;;;13.52;4.85;;;11.90;54.00;;;;;;5075254;28;20436;-74
2024/03/31 02:11:54;;;;;;;20.97;4.30;;;11.80;54.20;;;;;;5075634;28;20613;-73
2024/03/31 02:14:21;;;;;;;23.65;6.18;;;11.70;55.10;;;;;;5075622;28;20497;-73
2024/03/31 02:16:49;;;;;;;23.80;5.80;;;11.60;54.70;;;;;;5074208;28;20568;-73
2024/03/31 02:19:15;;;;;;;28.50;4.75;;;11.60;54.90;;;;;;5075103;28;21052;-73
2024/03/31 02:21:42;;;;;;;20.70;5.70;;;11.70;54.80;;;;;;5075412;28;20229;-73
2024/03/31 02:24:08;;;;;;;20.88;7.25;;;11.70;55.50;;;;;;5075018;28;20562;-74
2024/03/31 02:26:35;;;;;;;22.00;5.30;;;11.70;54.80;;;;;;5075067;28;20624;-73
2024/03/31 02:29:02;;;;;;;16.63;4.72;;;11.50;54.30;;;;;;5075452;28;20486;-73
2024/03/31 02:31:29;;;;;;;25.98;6.60;;;11.40;54.40;;;;;;5074843;28;20226;-73
2024/03/31 02:33:57;;;;;;;21.20;4.78;;;11.30;54.90;;;;;;5074194;28;20229;-73
2024/03/31 02:36:23;;;;;;;18.67;5.53;;;11.20;55.30;;;;;;5074918;28;20280;-73
2024/03/31 02:38:49;;;;;;;17.85;5.63;;;11.10;55.70;;;;;;5075002;28;20551;-73
2024/03/31 02:41:17;;;;;;;28.23;4.57;;;11.00;56.00;;;;;;5074715;28;20243;-73
2024/03/31 02:43:43;;;;;;;36.97;6.07;;;11.00;56.10;;;;;;5075046;28;20808;-73
2024/03/31 02:46:10;;;;;;;25.40;4.57;;;10.90;56.30;;;;;;5074304;28;20237;-73
2024/03/31 02:48:36;;;;;;;20.48;5.60;;;10.80;56.80;;;;;;5074913;28;20456;-73
2024/03/31 02:51:04;;;;;;;26.60;5.57;;;10.70;57.20;;;;;;5074513;28;20665;-74
2024/03/31 02:53:30;;;;;;;38.55;6.35;;;10.70;57.90;;;;;;5074085;28;20464;-74
2024/03/31 02:55:57;;;;;;;30.03;4.90;;;10.70;57.50;;;;;;5074832;28;20222;-74
2024/03/31 02:58:23;;;;;;;21.42;5.05;;;10.70;57.60;;;;;;5073987;28;20458;-74
2024/03/31 03:00:50;;;;;;;29.53;6.77;;;10.60;57.70;;;;;;5074362;28;20217;-75
2024/03/31 03:03:16;;;;;;;17.52;4.57;;;10.60;58.00;;;;;;5074567;28;20493;-76
2024/03/31 03:05:43;;;;;;;23.33;4.63;;;10.50;58.00;;;;;;5074224;28;20640;-75
2024/03/31 03:08:10;;;;;;;21.33;4.15;;;10.50;58.20;;;;;;5074253;28;20463;-75
2024/03/31 03:10:37;;;;;;;18.08;5.30;;;10.40;58.20;;;;;;5074143;28;20662;-75
2024/03/31 03:13:03;;;;;;;20.63;8.98;;;10.40;58.40;;;;;;5074372;28;20196;-76
2024/03/31 03:15:30;;;;;;;28.92;5.45;;;10.50;58.50;;;;;;5074487;28;20612;-76
2024/03/31 03:17:56;;;;;;;15.80;5.72;;;10.60;58.10;;;;;;5074351;28;20283;-76
2024/03/31 03:20:23;;;;;;;28.02;5.65;;;10.50;58.00;;;;;;5073780;28;20212;-76
2024/03/31 03:22:57;;;;;;;23.90;4.95;;;10.50;58.10;;;;;;5073462;28;20663;-75
2024/03/31 03:25:26;;;;;;;22.17;5.40;;;10.40;57.80;;;;;;5073846;28;20232;-75
2024/03/31 03:27:51;;;;;;;24.90;5.72;;;10.40;58.00;;;;;;5073687;28;20185;-75
2024/03/31 03:30:18;;;;;;;20.93;5.67;;;10.30;58.20;;;;;;5073557;28;20706;-75
2024/03/31 03:32:45;;;;;;;12.93;5.22;;;10.30;57.70;;;;;;5073624;28;20462;-75
2024/03/31 03:35:12;;;;;;;25.73;5.40;;;10.10;57.30;;;;;;5073638;28;20543;-75
2024/03/31 03:37:38;;;;;;;19.02;5.80;;;10.00;56.80;;;;;;5071590;28;20217;-75
2024/03/31 03:40:07;;;;;;;29.23;5.15;;;9.90;58.30;;;;;;5073835;28;20294;-75
2024/03/31 03:46:00;;;;;;;19.63;6.50;;;9.80;59.50;;;;;;5072973;28;20646;-75
2024/03/31 03:48:26;;;;;;;21.88;5.18;;;9.70;60.20;;;;;;5073629;28;20213;-75
2024/03/31 03:50:52;;;;;;;14.60;4.20;;;9.60;60.70;;;;;;5073102;28;20225;-75
2024/03/31 03:53:18;;;;;;;23.88;5.88;;;9.60;61.20;;;;;;5073747;28;20189;-75
2024/03/31 03:55:45;;;;;;;23.37;5.50;;;9.70;61.40;;;;;;5073471;28;20606;-75
2024/03/31 03:58:12;;;;;;;14.02;4.85;;;9.70;60.80;;;;;;5073735;28;20519;-72
2024/03/31 04:00:40;;;;;;;19.88;6.00;;;9.60;60.10;;;;;;5073174;28;20209;-72
2024/03/31 04:03:07;;;;;;;23.45;6.15;;;9.40;59.10;;;;;;5073623;28;20221;-72
2024/03/31 04:05:34;;;;;;;22.92;6.15;;;9.30;60.10;;;;;;5073178;28;20192;-72
2024/03/31 04:08:00;;;;;;;23.48;6.20;;;9.20;61.10;;;;;;5073104;28;20231;-72
2024/03/31 04:10:27;;;;;;;24.60;6.10;;;9.20;61.60;;;;;;5073057;28;20225;-72
2024/03/31 04:12:53;;;;;;;25.85;6.65;;;9.20;62.00;;;;;;5072764;28;20467;-72
2024/03/31 04:15:20;;;;;;;28.23;6.60;;;9.30;62.20;;;;;;5073075;28;20218;-72
2024/03/31 04:17:46;;;;;;;22.42;5.40;;;9.40;62.20;;;;;;5073490;28;20469;-72
2024/03/31 04:20:14;;;;;;;27.57;5.63;;;9.50;62.60;;;;;;5072926;28;20253;-72
2024/03/31 04:22:40;;;;;;;19.80;4.70;;;9.60;62.30;;;;;;5072958;28;20475;-72
2024/03/31 04:25:07;;;;;;;23.13;5.03;;;9.60;62.40;;;;;;5073003;28;20221;-72
2024/03/31 04:27:33;;;;;;;23.92;5.93;;;9.60;62.50;;;;;;5073439;28;20464;-72
2024/03/31 04:30:00;;;;;;;21.73;5.93;;;9.70;62.20;;;;;;5073429;28;20240;-72
2024/03/31 04:32:26;;;;;;;19.30;5.25;;;9.60;62.20;;;;;;5073220;28;20464;-72
2024/03/31 04:34:53;;;;;;;19.00;4.83;;;9.60;62.60;;;;;;5072125;28;20675;-72
2024/03/31 04:37:20;;;;;;;20.42;4.90;;;9.60;62.40;;;;;;5073004;28;20459;-75
2024/03/31 04:39:47;;;;;;;19.45;5.00;;;9.60;62.10;;;;;;5074056;28;20213;-72
2024/03/31 04:42:13;;;;;;;22.77;5.07;;;9.50;62.20;;;;;;5077386;28;20217;-73
2024/03/31 04:44:40;;;;;;;16.27;4.00;;;9.40;61.90;;;;;;5076667;28;20675;-72
2024/03/31 04:47:06;;;;;;;19.73;4.97;;;9.20;62.40;;;;;;5077060;28;20997;-73
2024/03/31 04:49:33;;;;;;;24.23;5.40;;;9.00;62.60;;;;;;5077164;28;20193;-72
2024/03/31 04:51:59;;;;;;;13.23;4.90;;;8.80;63.30;;;;;;5076861;28;20217;-72
2024/03/31 04:54:27;;;;;;;19.80;5.33;;;8.70;64.30;;;;;;5076612;28;20236;-73
2024/03/31 04:56:53;;;;;;;20.42;6.75;;;8.70;65.20;;;;;;5077027;28;20467;-72
2024/03/31 04:59:20;;;;;;;17.47;4.97;;;8.60;65.70;;;;;;5076961;28;20249;-72
2024/03/31 05:01:46;;;;;;;13.52;5.43;;;8.60;65.90;;;;;;5076257;28;20969;-72
2024/03/31 05:04:13;;;;;;;17.77;5.60;;;8.60;66.50;;;;;;5076953;28;20281;-72
2024/03/31 05:06:38;;;;;;;18.95;5.40;;;8.50;67.10;;;;;;5076550;28;20518;-72
2024/03/31 05:09:06;;;;;;;22.50;5.90;;;8.40;67.90;;;;;;5077060;28;20277;-72
2024/03/31 05:11:39;;;;;;;15.50;5.68;;;8.50;68.10;;;;;;5076520;28;20531;-72
2024/03/31 05:14:06;;;;;;;21.85;4.10;;;8.60;68.30;;;;;;5076947;28;20182;-75
2024/03/31 05:16:31;;;;;;;25.92;4.65;;;8.60;68.60;;;;;;5076184;28;20221;-74
2024/03/31 05:18:58;;;;;;;19.53;6.00;;;8.70;68.80;;;;;;5076151;28;20238;-74
2024/03/31 05:21:25;;;;;;;14.80;5.68;;;8.70;68.60;;;;;;5075912;28;20567;-74
2024/03/31 05:23:52;;;;;;;13.65;4.65;;;8.60;67.30;;;;;;5075945;28;20243;-74
2024/03/31 05:26:18;;;;;;;20.63;5.55;;;8.60;68.10;;;;;;5075794;28;20221;-73
2024/03/31 05:28:46;;;;;;;18.50;6.70;;;8.50;68.80;;;;;;5076456;28;20323;-73
2024/03/31 05:31:12;;;;;;;19.00;5.53;;;8.60;69.10;;;;;;5076061;28;20839;-73
2024/03/31 05:33:39;;;;;;;19.83;4.97;;;8.70;68.90;;;;;;5076178;28;20236;-73
2024/03/31 05:36:05;;;;;;;14.20;5.03;;;8.70;68.80;;;;;;5075650;28;20528;-73
2024/03/31 05:38:32;;;;;;;18.98;4.93;;;8.60;68.70;;;;;;5075807;28;20190;-73
2024/03/31 05:40:58;;;;;;;14.68;6.80;;;8.50;69.00;;;;;;5075984;28;20260;-73
2024/03/31 05:43:25;;;;;;;14.73;6.80;;;8.60;69.50;;;;;;5075637;28;20186;-73
2024/03/31 05:45:52;;;;;;;23.15;5.05;;;8.70;69.60;;;;;;5075098;28;20458;-74
2024/03/31 05:48:19;;;;;;;20.40;5.15;;;8.60;69.40;;;;;;5075469;28;20190;-73
2024/03/31 05:50:46;;;;;;;16.70;3.88;;;8.50;69.20;;;;;;5075489;28;20606;-72
2024/03/31 05:53:12;;;;;;;15.68;3.95;;;8.40;70.00;;;;;;5075738;28;20221;-73
2024/03/31 05:55:38;;;;;;;9.87;4.60;;;8.40;70.60;;;;;;5075148;28;20599;-73
2024/03/31 05:58:04;;;;;;;21.08;6.45;;;8.40;71.40;;;;;;5075607;28;20475;-73
2024/03/31 06:00:31;;;;;;;17.43;4.37;;;8.50;72.00;;;;;;5075506;28;20691;-73
2024/03/31 06:02:58;;;;;;;14.18;4.78;;;8.50;71.70;;;;;;5075314;28;20475;-73
2024/03/31 06:05:25;;;;;;;26.30;5.20;;;8.60;71.60;;;;;;5075431;28;20628;-73
2024/03/31 06:07:51;;;;;;;13.23;3.60;;;8.70;71.40;;;;;;5075565;28;20273;-74
2024/03/31 06:10:19;;;;;;;15.75;4.15;;;8.80;71.70;;;;;;5075128;28;20220;-73
2024/03/31 06:12:45;;;;;;;18.85;5.85;;;8.90;70.80;;;;;;5075141;28;20619;-73
2024/03/31 06:15:12;;;;;;;22.60;5.87;;;8.90;71.00;;;;;;5074756;28;20213;-73
2024/03/31 06:17:39;;;;;;;17.38;5.22;;;8.90;70.70;;;;;;5075484;28;20848;-74
2024/03/31 06:20:09;;;;;;;17.75;4.38;;;8.80;71.00;;;;;;5075221;28;20209;-75
2024/03/31 06:22:38;;;;;;;15.40;4.60;;;8.80;71.40;;;;;;5075227;28;20225;-75
2024/03/31 06:25:06;;;;;;;27.98;4.85;;;8.80;71.50;;;;;;5074065;28;20178;-75
2024/03/31 06:27:32;;;;;;;22.65;4.60;;;8.70;72.10;;;;;;5074366;28;20220;-75
2024/03/31 06:29:59;;;;;;;17.00;5.03;;;8.60;72.10;;;;;;5075084;28;20672;-75
2024/03/31 06:32:25;;;;;;;16.70;4.35;;;8.60;72.50;;;;;;5074723;28;20479;-75
2024/03/31 06:34:52;;;;;;;14.07;4.47;;;8.70;72.80;;;;;;5074399;28;20611;-75
2024/03/31 06:37:19;;;;;;;13.95;4.28;;;8.70;72.80;;;;;;5054966;28;20225;-74
2024/03/31 06:39:46;;;;;;;24.00;4.82;;;8.80;72.40;;;;;;5055184;28;20221;-74
2024/03/31 06:42:15;;;;;;;23.67;4.70;;;8.80;72.40;;;;;;5054521;28;20194;-75
2024/03/31 06:44:41;;;;;;;10.88;4.65;;;8.70;72.60;;;;;;5067060;28;20616;-74
2024/03/31 06:47:07;;;;;;;16.88;5.65;;;8.70;72.90;;;;;;5074231;28;20348;-74
2024/03/31 06:49:34;;;;;;;18.37;5.40;;;8.70;73.40;;;;;;5074712;28;20311;-75
2024/03/31 06:52:01;;;;;;;23.48;5.45;;;8.70;74.00;;;;;;5074297;28;20436;-74
2024/03/31 06:54:30;;;;;;;9.38;4.10;;;8.70;74.50;;;;;;5074258;28;20200;-74
2024/03/31 06:56:56;;;;;;;26.08;5.65;;;8.70;75.00;;;;;;5074155;28;20186;-73
2024/03/31 06:59:23;;;;;;;26.50;5.27;;;8.80;74.60;;;;;;5074451;28;20215;-73
2024/03/31 07:01:49;;;;;;;24.85;5.55;;;8.80;74.80;;;;;;5057321;28;20440;-70
2024/03/31 07:04:16;;;;;;;20.00;5.37;;;8.90;75.10;;;;;;5071098;28;20189;-69
2024/03/31 07:06:41;;;;;;;20.33;6.30;;;8.90;75.50;;;;;;5072263;28;20468;-70
2024/03/31 07:09:08;;;;;;;21.30;4.60;;;9.00;75.00;;;;;;5071341;28;20217;-69
2024/03/31 07:11:36;;;;;;;16.02;4.68;;;9.10;75.00;;;;;;5057728;28;20569;-70
2024/03/31 07:14:03;;;;;;;14.20;4.75;;;9.20;75.20;;;;;;5063486;28;20182;-70
2024/03/31 07:16:28;;;;;;;22.25;6.13;;;9.40;75.10;;;;;;5068805;28;20524;-70
2024/03/31 07:18:55;;;;;;;17.97;5.10;;;9.50;74.10;;;;;;5072502;28;20193;-70
2024/03/31 07:21:21;;;;;;;25.40;6.93;;;9.60;73.00;;;;;;5071404;28;20622;-67
2024/03/31 07:23:48;;;;;;;25.67;7.60;;;9.60;73.70;;;;;;5066286;28;20685;-73
2024/03/31 07:26:14;;;;;;;18.55;7.15;;;9.70;73.90;;;;;;5067633;28;20853;-71
2024/03/31 07:28:42;;;;;;;17.07;6.13;;;9.80;74.90;;;;;;5073397;28;20229;-70
2024/03/31 07:31:08;;;;;;;26.77;9.13;;;9.80;75.30;;;;;;5072567;28;20957;-69
2024/03/31 07:33:35;;;;;;;18.50;7.97;;;10.00;73.20;;;;;;5072998;28;20226;-68
2024/03/31 07:36:01;;;;;;;23.40;8.07;;;10.00;72.60;;;;;;5072230;28;20460;-70
2024/03/31 07:38:28;;;;;;;19.07;5.83;;;10.10;72.40;;;;;;5072611;28;20221;-70
2024/03/31 07:40:54;;;;;;;29.30;7.97;;;10.10;72.00;;;;;;5072698;28;20564;-71
2024/03/31 07:43:26;;;;;;;28.27;8.83;;;10.20;72.40;;;;;;5072999;28;20293;-70
2024/03/31 07:45:53;;;;;;;21.95;7.40;;;10.30;73.70;;;;;;5067826;28;20923;-70
2024/03/31 07:48:21;;;;;;;18.70;6.57;;;10.50;73.20;;;;;;5072663;28;20477;-70
2024/03/31 07:50:47;;;;;;;13.30;5.25;;;10.50;73.20;;;;;;5072550;28;20189;-70
2024/03/31 07:53:14;;;;;;;27.30;5.97;;;10.70;73.20;;;;;;5071866;28;20186;-70
2024/03/31 07:55:40;;;;;;;14.15;5.60;;;10.80;72.70;;;;;;5067865;28;20585;-70
2024/03/31 07:58:07;;;;;;;22.27;5.13;;;10.80;71.90;;;;;;5072145;28;20533;-70
2024/03/31 08:00:33;;;;;;;17.08;4.80;;;10.90;72.30;;;;;;5063191;28;20248;-69
2024/03/31 08:03:01;;;;;;;19.98;6.10;;;10.90;71.80;;;;;;5070888;28;20675;-71
2024/03/31 08:05:27;;;;;;;17.00;4.43;;;10.90;72.80;;;;;;5070927;28;20214;-71
2024/03/31 08:07:54;;;;;;;17.97;5.20;;;11.10;72.20;;;;;;5071595;28;20225;-71
2024/03/31 08:10:20;;;;;;;16.88;6.47;;;11.20;71.50;;;;;;5070480;28;20447;-71
2024/03/31 08:12:47;;;;;;;23.23;5.37;;;11.40;71.30;;;;;;5071827;28;20204;-71
2024/03/31 08:15:13;;;;;;;20.23;4.65;;;11.50;71.20;;;;;;5072779;28;20471;-71
2024/03/31 08:17:40;;;;;;;14.70;4.20;;;11.60;72.50;;;;;;5072936;28;20225;-72
2024/03/31 08:20:08;;;;;;;21.52;6.05;;;11.70;73.50;;;;;;5073124;28;20898;-71
2024/03/31 08:22:35;;;;;;;25.20;4.93;;;11.90;76.10;;;;;;5073140;28;20277;-71
2024/03/31 08:25:01;;;;;;;26.47;7.10;;;12.20;73.70;;;;;;5072381;28;20227;-71
2024/03/31 08:27:28;;;;;;;15.70;5.67;;;12.50;68.80;;;;;;5072868;28;20483;-71
2024/03/31 08:29:54;;;;;;;35.75;8.60;;;12.60;67.70;;;;;;5072703;28;20475;-71
2024/03/31 08:32:21;;;;;;;28.53;10.00;;;12.70;65.50;;;;;;5073272;28;20190;-70
2024/03/31 08:34:47;;;;;;;23.23;7.50;;;12.70;65.20;;;;;;5072640;28;20427;-71
2024/03/31 08:37:15;;;;;;;35.83;7.90;;;12.70;64.10;;;;;;5072679;28;20988;-71
2024/03/31 08:39:41;;;;;;;18.07;6.07;;;12.80;65.30;;;;;;5072856;28;20482;-71
2024/03/31 08:42:15;;;;;;;26.43;6.13;;;12.80;63.60;;;;;;5072819;28;20937;-71
2024/03/31 08:44:42;;;;;;;24.33;5.83;;;12.90;63.90;;;;;;5073078;28;20471;-71
2024/03/31 08:47:12;;;;;;;25.13;8.03;;;12.90;63.60;;;;;;5072255;28;20467;-71
2024/03/31 08:49:39;;;;;;;19.13;5.13;;;13.20;65.20;;;;;;5072513;28;20518;-71
2024/03/31 08:52:07;;;;;;;27.77;7.63;;;13.40;64.70;;;;;;5072885;28;20868;-71
2024/03/31 08:54:35;;;;;;;29.40;6.20;;;13.50;61.10;;;;;;5072073;28;20463;-71
2024/03/31 08:57:02;;;;;;;17.23;5.67;;;13.70;60.60;;;;;;5072009;28;20456;-71
2024/03/31 08:59:28;;;;;;;17.40;5.83;;;13.80;60.50;;;;;;5068909;28;20772;-71
2024/03/31 09:01:58;;;;;;;18.87;4.77;;;13.90;59.80;;;;;;5072302;28;20957;-71
2024/03/31 09:04:24;;;;;;;18.77;6.23;;;13.90;60.10;;;;;;5069526;28;20510;-71
2024/03/31 09:06:51;;;;;;;19.67;5.07;;;13.80;60.20;;;;;;5070772;28;20972;-71
2024/03/31 09:09:22;;;;;;;22.17;6.83;;;13.80;59.80;;;;;;5071909;28;20428;-71
2024/03/31 09:11:51;;;;;;;17.87;5.40;;;13.80;59.80;;;;;;5072197;28;20770;-71
2024/03/31 09:14:17;;;;;;;11.63;5.10;;;13.80;59.00;;;;;;5071642;28;20472;-71
2024/03/31 09:16:46;;;;;;;26.43;5.60;;;13.80;59.50;;;;;;5071709;28;20464;-71
2024/03/31 09:19:12;;;;;;;21.13;4.70;;;13.70;59.70;;;;;;5071865;28;20512;-71
2024/03/31 09:21:47;;;;;;;23.53;6.83;;;13.80;60.80;;;;;;5071948;28;20468;-71
2024/03/31 09:24:14;;;;;;;24.93;5.10;;;13.80;61.40;;;;;;5071664;28;20502;-71
2024/03/31 09:26:41;;;;;;;26.47;8.43;;;13.90;61.10;;;;;;5074377;28;20512;-72
2024/03/31 09:29:09;;;;;;;23.70;5.07;;;13.90;59.90;;;;;;5075340;28;20528;-73
2024/03/31 09:31:38;;;;;;;16.23;5.60;;;13.90;59.00;;;;;;5076007;28;20454;-71
2024/03/31 09:34:04;;;;;;;25.53;6.43;;;14.00;59.30;;;;;;5075044;28;20463;-73
2024/03/31 09:36:31;;;;;;;18.57;4.10;;;14.00;59.70;;;;;;5074810;28;20964;-71
2024/03/31 09:38:57;;;;;;;22.80;4.60;;;14.10;60.70;;;;;;5075526;28;20463;-72
2024/03/31 09:41:24;;;;;;;20.43;6.13;;;14.20;60.50;;;;;;5074736;28;20985;-71
2024/03/31 09:43:50;;;;;;;18.90;4.50;;;14.40;59.80;;;;;;5074486;28;20862;-71
2024/03/31 09:46:19;;;;;;;13.13;4.63;;;14.60;60.90;;;;;;5073783;28;20474;-72
2024/03/31 09:48:51;;;;;;;23.17;4.60;;;15.00;59.40;;;;;;5075219;28;20519;-71
2024/03/31 09:51:20;;;;;;;21.90;5.17;;;15.50;58.20;;;;;;5067459;28;20464;-71
2024/03/31 09:53:56;;;;;;;19.00;5.17;;;15.70;55.90;;;;;;5070973;28;20948;-71
2024/03/31 09:56:35;;;;;;;17.97;6.87;;;16.00;57.30;;;;;;5056143;28;20527;-74
2024/03/31 09:59:06;;;;;;;18.87;4.50;;;16.30;58.70;;;;;;5032737;28;20808;-74
2024/03/31 10:01:34;;;;;;;23.87;4.60;;;16.60;55.90;;;;;;5042399;28;21098;-71
2024/03/31 10:04:10;;;;;;;21.87;5.43;;;16.80;55.10;;;;;;5072593;28;20439;-71
2024/03/31 10:06:36;;;;;;;25.90;5.47;;;16.80;54.40;;;;;;5072141;28;20460;-71
2024/03/31 10:09:04;;;;;;;23.83;4.90;;;16.90;53.60;;;;;;5014993;28;20445;-72
2024/03/31 10:11:31;;;;;;;25.20;6.80;;;16.90;53.60;;;;;;5035895;28;20446;-72
2024/03/31 10:13:59;;;;;;;16.47;4.17;;;16.90;53.20;;;;;;5071915;28;20442;-72
2024/03/31 10:16:26;;;;;;;24.97;5.10;;;16.90;52.80;;;;;;5054167;28;20946;-71
2024/03/31 10:18:57;;;;;;;17.77;4.73;;;16.90;54.10;;;;;;5063280;28;20867;-71
2024/03/31 10:21:25;;;;;;;26.67;5.27;;;16.90;54.40;;;;;;5069090;28;20552;-72
2024/03/31 10:23:54;;;;;;;19.40;4.70;;;17.00;53.10;;;;;;5065957;28;20440;-71
2024/03/31 10:26:22;;;;;;;17.23;5.07;;;17.10;53.30;;;;;;5074132;28;20434;-71
2024/03/31 10:28:51;;;;;;;23.40;6.20;;;17.20;54.50;;;;;;5073308;28;20518;-72
2024/03/31 10:31:17;;;;;;;25.13;4.77;;;17.40;54.20;;;;;;5074259;28;20508;-71
2024/03/31 10:33:44;;;;;;;15.40;4.27;;;17.70;55.50;;;;;;5073838;28;20822;-72
2024/03/31 10:36:13;;;;;;;17.53;4.43;;;18.20;53.90;;;;;;5073575;28;20523;-72
2024/03/31 10:38:44;;;;;;;20.90;6.33;;;18.70;53.00;;;;;;5052916;28;21033;-72
2024/03/31 10:41:10;;;;;;;21.00;5.63;;;19.00;52.70;;;;;;5063650;28;20472;-72
2024/03/31 10:43:38;;;;;;;18.73;5.00;;;19.40;52.50;;;;;;5071636;28;20459;-72
2024/03/31 10:46:04;;;;;;;19.27;6.30;;;19.80;52.30;;;;;;5073335;28;20842;-72
2024/03/31 10:48:31;;;;;;;14.23;5.00;;;20.20;52.00;;;;;;5073034;28;20531;-72
2024/03/31 10:51:08;;;;;;;20.20;4.57;;;20.50;50.80;;;;;;5073402;28;20519;-72
2024/03/31 10:53:36;;;;;;;19.77;4.23;;;21.00;51.10;;;;;;5073828;28;20432;-72
2024/03/31 10:56:07;;;;;;;22.87;5.33;;;21.30;49.10;;;;;;5073959;28;20455;-72
2024/03/31 10:58:34;;;;;;;26.43;5.90;;;21.50;46.20;;;;;;5054088;28;20437;-72
2024/03/31 11:01:02;;;;;;;19.70;5.27;;;21.80;46.60;;;;;;5053439;28;20508;-72
2024/03/31 11:03:31;;;;;;;20.47;4.80;;;22.00;47.60;;;;;;5053803;28;20511;-72
2024/03/31 11:05:57;;;;;;;24.17;4.73;;;22.20;47.10;;;;;;5053874;28;20546;-72
2024/03/31 11:08:25;;;;;;;21.83;4.40;;;22.50;46.50;;;;;;5054962;28;20440;-72
2024/03/31 11:10:54;;;;;;;22.03;4.10;;;22.80;43.30;;;;;;5073326;28;20543;-72
2024/03/31 11:13:21;;;;;;;15.63;3.53;;;23.00;43.70;;;;;;5073358;28;20436;-73
2024/03/31 11:15:47;;;;;;;13.53;3.93;;;23.10;43.70;;;;;;5073300;28;20943;-72
2024/03/31 11:18:14;;;;;;;17.87;3.70;;;23.30;41.30;;;;;;5073678;28;20444;-72
2024/03/31 11:20:42;;;;;;;12.33;4.03;;;23.40;40.40;;;;;;5073176;28;20558;-72
2024/03/31 11:23:12;;;;;;;17.27;4.87;;;23.50;38.50;;;;;;5073223;28;20452;-73
2024/03/31 11:25:40;;;;;;;20.50;5.53;;;23.30;37.90;;;;;;5073384;28;20550;-72
2024/03/31 11:28:09;;;;;;;12.70;3.77;;;23.20;38.30;;;;;;5073431;28;20455;-73
2024/03/31 11:30:36;;;;;;;25.80;4.67;;;23.00;38.30;;;;;;5073156;28;20459;-72
2024/03/31 11:33:04;;;;;;;16.23;3.33;;;23.00;38.10;;;;;;5073106;28;20427;-72
2024/03/31 11:35:33;;;;;;;20.80;4.47;;;22.90;40.40;;;;;;5073194;28;20480;-72
2024/03/31 11:38:12;;;;;;;15.60;4.20;;;22.90;40.70;;;;;;5060157;28;20995;-72
2024/03/31 11:40:38;;;;;;;14.07;3.73;;;22.90;41.10;;;;;;5071834;28;20451;-73
2024/03/31 11:43:06;;;;;;;13.93;2.73;;;22.90;40.40;;;;;;5072935;28;20436;-72
2024/03/31 11:45:34;;;;;;;11.97;2.33;;;22.90;39.80;;;;;;5067676;28;20531;-72
2024/03/31 11:48:01;;;;;;;16.63;3.50;;;22.90;38.80;;;;;;5061552;28;20472;-72
2024/03/31 11:50:33;;;;;;;12.20;2.67;;;22.90;38.40;;;;;;5064084;28;20916;-72
2024/03/31 11:53:00;;;;;;;13.53;3.10;;;22.80;38.20;;;;;;5067561;28;20771;-73
2024/03/31 11:55:29;;;;;;;13.37;3.37;;;22.70;38.50;;;;;;5060644;28;20436;-73
2024/03/31 11:57:57;;;;;;;12.43;3.10;;;22.60;38.60;;;;;;5066853;28;20844;-72
2024/03/31 12:00:23;;;;;;;11.73;2.97;;;22.40;37.70;;;;;;5024889;28;21467;-73
2024/03/31 12:02:51;;;;;;;12.30;2.87;;;22.30;38.50;;;;;;5067941;28;20447;-73
2024/03/31 12:05:18;;;;;;;10.93;3.60;;;22.10;39.00;;;;;;5062143;28;20433;-73
2024/03/31 12:07:47;;;;;;;14.33;3.60;;;21.90;39.90;;;;;;5089701;28;20850;-73
2024/03/31 12:10:13;;;;;;;15.10;4.37;;;21.70;40.10;;;;;;5066901;28;20495;-73
2024/03/31 12:12:40;;;;;;;13.80;2.97;;;21.60;40.10;;;;;;5066462;28;20446;-74
2024/03/31 12:15:07;;;;;;;10.30;3.40;;;21.60;39.90;;;;;;5067578;28;20515;-74
2024/03/31 12:17:35;;;;;;;25.20;3.27;;;21.40;40.30;;;;;;5070542;28;20440;-72
2024/03/31 12:20:08;;;;;;;13.40;3.93;;;21.30;41.00;;;;;;5067092;28;20429;-73
2024/03/31 12:22:35;;;;;;;13.63;3.33;;;21.20;42.50;;;;;;5069590;28;20593;-73
2024/03/31 12:25:01;;;;;;;13.57;2.90;;;21.10;42.60;;;;;;5056664;28;20957;-73
2024/03/31 12:27:28;;;;;;;20.30;3.77;;;21.00;43.00;;;;;;5070250;28;20440;-72
2024/03/31 12:29:54;;;;;;;20.97;3.20;;;21.00;42.40;;;;;;5070413;28;20464;-72
2024/03/31 12:32:22;;;;;;;13.40;3.10;;;20.80;41.80;;;;;;5071122;28;20479;-72
2024/03/31 12:34:48;;;;;;;13.90;4.07;;;20.70;42.30;;;;;;5071465;28;20454;-72
2024/03/31 12:37:16;;;;;;;15.13;3.33;;;20.60;41.60;;;;;;5071559;28;20473;-72
2024/03/31 12:39:42;;;;;;;11.40;3.30;;;20.60;40.40;;;;;;5061104;28;20464;-72
2024/03/31 12:42:13;;;;;;;11.00;2.40;;;20.50;41.10;;;;;;5051761;28;20888;-72
2024/03/31 12:44:39;;;;;;;14.47;3.10;;;20.50;41.60;;;;;;5051630;28;20436;-73